Bookmark and Share
Track history (hours):
 

Louis Cristal

Last reported at 2014-Apr-18 23:27 UTC. Time now 2014-Apr-19 00:15 UTC.
Position N 37°37' E 025°43'.

Length 162 m; draft 6 m.

Type: Passenger vessel. MMSI: 229001000.

NotesDate/timePositionNaut miles runAvg speedWind from/ knotsBaromVisibWave heightAir tempDewpointWater temp
2014-Apr-18 23:27N 37°37' E 025°43'1617.8
2014-Apr-18 22:33N 37°32' E 025°24'1817.4
2014-Apr-18 21:33N 37°27' E 025°03'5 4.9
2014-Apr-18 20:33N 37°26' E 024°57'0 0.0
2014-Apr-18 19:33N 37°26' E 024°57'0 0.0
2014-Apr-18 18:33N 37°26' E 024°57'0 0.0
2014-Apr-18 17:33N 37°26' E 024°57'0 0.0
2014-Apr-18 16:33N 37°26' E 024°57'0 0.1
2014-Apr-18 15:34N 37°26' E 024°57'9 8.6
2014-Apr-18 14:33N 37°32' E 024°48'1515.0
2014-Apr-18 13:31N 37°31' E 024°29'21 0.6
2014-Apr-17 03:33N 37°35' E 024°03'46113.5
2014-Apr-15 17:29N 36°30' E 014°32'1313.6
2014-Apr-15 16:33N 36°30' E 014°16'1413.5
2014-Apr-15 15:33N 36°32' E 013°59'14014.1
2014-Apr-15 05:33N 37°20' E 011°14'35917.9
2014-Apr-14 09:32N 37°05' E 003°44'1717.4
2014-Apr-14 08:34N 37°02' E 003°23'1817.8
2014-Apr-14 07:32N 36°59' E 003°00'1717.9
2014-Apr-14 06:33N 36°57' E 002°39'37918.7
2014-Apr-13 10:20N 35°60' W 005°07'1519.3
2014-Apr-13 09:33N 35°57' W 005°25'1717.2
2014-Apr-13 08:33N 35°53' W 005°46'  

Dump ship's entire track history

sailing weather and tide predictions

Louis Cristal — 9HA2978 — position and weather